Alton, Missouri
Current Conditions -  °F | °C
As of 6:53 PM on Tuesday 25 Nov 2014 (Local Time) from KUNO Reporting Station
Clear Clear  
Wind Chill: 30°   Ceiling: Unl
Heat Index: 30°   Visibility: 10mi
Dew Point: 20°   Wind: 0mph
Humidity: 66%   Direction: NA
Pressure: 30.16"   Gusts: NA
Location:  36.69°N, 91.4°W
Report Text: KUNO 260053Z AUTO 00000KT 10SM CLR M01/M07 A3016 RMK AO2 SLP224 T10111067
Loading
Personal Weather Stations






























Interactive Weather Map New forecast layout! Learn more

10-Day Weather Forecast

Advertisements
Track Severe Weather on mobile